createdAt,value
2022-10-27T00:00:59.047Z,100789.70
2022-10-27T00:03:35.314Z,100792.96
2022-10-27T00:06:05.840Z,100788.80
2022-10-27T00:08:34.510Z,100788.74
2022-10-27T00:11:05.427Z,100783.13
2022-10-27T00:13:34.293Z,100783.85
2022-10-27T00:16:09.338Z,100783.19
2022-10-27T00:18:37.266Z,100781.46
2022-10-27T00:21:08.250Z,100780.23
2022-10-27T00:23:38.193Z,100781.70
2022-10-27T00:26:08.082Z,100779.72
2022-10-27T00:28:35.958Z,100780.70
2022-10-27T00:31:28.758Z,100779.59
2022-10-27T00:33:57.585Z,100783.56
2022-10-27T00:36:25.357Z,100782.27
2022-10-27T00:38:54.877Z,100784.69
2022-10-27T00:41:33.273Z,100787.05
2022-10-27T00:44:22.326Z,100792.02
2022-10-27T00:46:50.561Z,100788.64
2022-10-27T00:49:28.855Z,100790.92
2022-10-27T00:52:04.495Z,100796.22
2022-10-27T00:54:38.710Z,100798.42
2022-10-27T00:57:08.490Z,100799.74
2022-10-27T00:59:37.884Z,100804.28
2022-10-27T01:02:08.467Z,100806.04
2022-10-27T01:04:45.187Z,100804.46
2022-10-27T01:07:16.293Z,100806.14
2022-10-27T01:09:45.048Z,100805.05
2022-10-27T01:12:12.737Z,100809.20
2022-10-27T01:14:40.727Z,100809.33
2022-10-27T01:17:39.825Z,100808.98
2022-10-27T01:20:33.867Z,100802.44
2022-10-27T01:23:35.453Z,100799.89
2022-10-27T01:26:27.582Z,100803.69
2022-10-27T01:29:28.631Z,100797.94
2022-10-27T01:32:03.023Z,100798.25
2022-10-27T01:34:36.754Z,100802.94
2022-10-27T01:37:21.360Z,100802.61
2022-10-27T01:40:11.649Z,100797.81
2022-10-27T01:43:07.744Z,100798.85
2022-10-27T01:45:38.576Z,100800.23
2022-10-27T01:48:08.590Z,100803.10
2022-10-27T01:50:50.790Z,100804.99
2022-10-27T01:53:29.511Z,100806.55
2022-10-27T01:56:29.098Z,100811.67
2022-10-27T01:59:38.902Z,100807.77
2022-10-27T02:02:35.457Z,100808.02
2022-10-27T02:05:10.709Z,100805.91
2022-10-27T02:07:55.701Z,100803.73
2022-10-27T02:10:40.846Z,100805.03
2022-10-27T02:13:09.782Z,100802.73
2022-10-27T02:15:44.320Z,100799.66
2022-10-27T02:18:17.005Z,100795.96
2022-10-27T02:20:49.349Z,100791.36
2022-10-27T02:23:20.177Z,100791.20
2022-10-27T02:26:04.779Z,100792.36
2022-10-27T02:28:46.492Z,100794.41
2022-10-27T02:31:20.708Z,100791.87
2022-10-27T02:33:49.558Z,100790.95
2022-10-27T02:36:18.321Z,100787.08
2022-10-27T02:38:45.868Z,100787.69
2022-10-27T02:41:13.458Z,100784.62
2022-10-27T02:43:41.108Z,100783.96
2022-10-27T02:46:08.700Z,100783.71
2022-10-27T02:48:36.276Z,100787.42
2022-10-27T02:51:04.042Z,100791.80
2022-10-27T02:53:31.648Z,100799.45
2022-10-27T02:55:59.247Z,100802.79
2022-10-27T02:58:26.920Z,100799.36
2022-10-27T03:00:56.173Z,100802.19
2022-10-27T03:03:24.561Z,100798.67
2022-10-27T03:05:52.227Z,100798.88
2022-10-27T03:08:19.926Z,100798.67
2022-10-27T03:10:47.506Z,100791.68
2022-10-27T03:13:15.182Z,100791.10
2022-10-27T03:15:45.381Z,100794.77
2022-10-27T03:18:13.663Z,100796.60
2022-10-27T03:20:41.270Z,100798.20
2022-10-27T03:23:08.850Z,100800.94
2022-10-27T03:25:37.337Z,100801.39
2022-10-27T03:28:05.067Z,100804.05
2022-10-27T03:30:32.635Z,100807.14
2022-10-27T03:33:01.321Z,100804.17
2022-10-27T03:35:28.862Z,100809.40
2022-10-27T03:38:00.642Z,100807.86
2022-10-27T03:40:28.922Z,100809.15
2022-10-27T03:43:00.282Z,100812.87
2022-10-27T03:45:28.544Z,100814.33
2022-10-27T03:48:04.143Z,100811.74
2022-10-27T03:50:32.658Z,100816.93
2022-10-27T03:53:00.454Z,100815.02
2022-10-27T03:55:28.131Z,100818.91
2022-10-27T03:57:56.070Z,100820.46
2022-10-27T04:00:24.212Z,100818.84
2022-10-27T04:02:55.964Z,100813.48
2022-10-27T04:05:24.593Z,100811.14
2022-10-27T04:07:52.145Z,100814.23
2022-10-27T04:10:19.835Z,100815.67
2022-10-27T04:12:53.690Z,100816.02
2022-10-27T04:15:23.898Z,100815.58
2022-10-27T04:17:56.628Z,100821.03
2022-10-27T04:20:25.171Z,100821.98
2022-10-27T04:22:56.589Z,100819.24
2022-10-27T04:25:25.114Z,100816.16
2022-10-27T04:28:01.842Z,100817.02
2022-10-27T04:30:30.123Z,100817.02
2022-10-27T04:32:57.768Z,100818.78
2022-10-27T04:35:25.539Z,100823.70
2022-10-27T04:37:56.471Z,100822.42
2022-10-27T04:40:24.155Z,100821.79
2022-10-27T04:42:51.784Z,100826.45
2022-10-27T04:45:20.060Z,100825.30
2022-10-27T04:47:47.763Z,100826.95
2022-10-27T04:50:16.786Z,100829.36
2022-10-27T04:53:01.911Z,100824.08
2022-10-27T04:55:31.854Z,100823.57
2022-10-27T05:03:33.657Z,100833.21
2022-10-27T05:06:01.328Z,100834.15
2022-10-27T05:08:29.017Z,100834.34
2022-10-27T05:10:56.806Z,100839.83
2022-10-27T05:13:24.739Z,100831.54
2022-10-27T05:15:52.297Z,100831.20
2022-10-27T05:18:19.962Z,100834.02
2022-10-27T05:20:47.593Z,100839.98
2022-10-27T05:23:15.193Z,100842.23
2022-10-27T05:28:14.318Z,100844.39
2022-10-27T05:30:41.905Z,100847.47
2022-10-27T05:33:09.529Z,100855.73
2022-10-27T05:35:37.076Z,100860.48
2022-10-27T05:38:05.255Z,100867.50
2022-10-27T05:40:36.945Z,100873.13
2022-10-27T05:43:04.749Z,100872.66
2022-10-27T05:45:32.568Z,100876.45
2022-10-27T05:48:06.879Z,100875.98
2022-10-27T05:50:35.298Z,100878.45
2022-10-27T05:53:03.608Z,100883.94
2022-10-27T05:55:31.270Z,100882.13
2022-10-27T05:58:04.451Z,100885.06
2022-10-27T06:00:36.037Z,100888.83
2022-10-27T06:03:08.440Z,100890.89
2022-10-27T06:05:37.075Z,100894.93
2022-10-27T06:08:04.938Z,100896.70
2022-10-27T06:10:32.648Z,100898.95
2022-10-27T06:13:02.432Z,100900.52
2022-10-27T06:15:31.758Z,100901.72
2022-10-27T06:17:59.669Z,100904.99
2022-10-27T06:20:27.742Z,100912.95
2022-10-27T06:22:55.480Z,100910.55
2022-10-27T06:25:23.519Z,100915.91
2022-10-27T06:27:51.503Z,100915.62
2022-10-27T06:30:20.069Z,100915.63
2022-10-27T06:32:48.777Z,100919.17
2022-10-27T06:35:17.529Z,100922.77
2022-10-27T06:37:46.859Z,100920.46
2022-10-27T06:40:17.027Z,100923.42
2022-10-27T06:45:32.815Z,100934.57
2022-10-27T06:48:02.063Z,100938.52
2022-10-27T06:50:30.634Z,100941.89
2022-10-27T06:52:59.762Z,100941.54
2022-10-27T06:55:28.102Z,100944.67
2022-10-27T06:57:56.033Z,100944.89
2022-10-27T07:00:24.822Z,100949.27
2022-10-27T07:02:52.681Z,100947.67
2022-10-27T07:05:20.500Z,100947.38
2022-10-27T07:07:50.314Z,100949.83
2022-10-27T07:10:20.518Z,100948.98
2022-10-27T07:12:54.099Z,100949.71
2022-10-27T07:15:26.714Z,100945.35
2022-10-27T07:18:00.172Z,100944.43
2022-10-27T07:20:30.482Z,100945.05
2022-10-27T07:22:58.459Z,100951.31
2022-10-27T07:25:28.444Z,100952.05
2022-10-27T07:27:57.022Z,100960.77
2022-10-27T07:30:38.212Z,100961.16
2022-10-27T07:33:06.532Z,100963.30
2022-10-27T07:35:34.734Z,100966.34
2022-10-27T07:38:03.499Z,100971.52
2022-10-27T07:40:33.192Z,100969.79
2022-10-27T07:43:05.378Z,100970.92
2022-10-27T07:45:38.905Z,100973.40
2022-10-27T07:48:10.937Z,100978.37
2022-10-27T07:50:38.723Z,100979.79
2022-10-27T07:53:06.569Z,100974.44
2022-10-27T07:55:36.519Z,100967.18
2022-10-27T07:58:11.036Z,100967.51
2022-10-27T08:00:41.345Z,100966.33
2022-10-27T08:03:14.445Z,100965.13
2022-10-27T08:05:42.194Z,100962.65
2022-10-27T08:08:09.973Z,100965.20
2022-10-27T08:10:39.840Z,100960.73
2022-10-27T08:13:09.049Z,100961.23
2022-10-27T08:15:38.530Z,100961.58
2022-10-27T08:18:07.585Z,100969.51
2022-10-27T08:20:39.773Z,100974.55
2022-10-27T08:23:29.964Z,100976.62
2022-10-27T08:25:58.179Z,100979.20
2022-10-27T08:28:26.400Z,100977.20
2022-10-27T08:30:54.459Z,100979.32
2022-10-27T08:33:23.030Z,100980.09
2022-10-27T08:35:51.846Z,100976.73
2022-10-27T08:38:20.569Z,100967.63
2022-10-27T08:41:12.857Z,100970.19
2022-10-27T08:43:49.664Z,100978.34
2022-10-27T08:46:44.769Z,100979.36
2022-10-27T08:49:46.222Z,100978.66
2022-10-27T08:52:21.495Z,100983.30
2022-10-27T08:54:54.310Z,100980.16
2022-10-27T08:57:28.435Z,100983.92
2022-10-27T08:59:57.011Z,100984.70
2022-10-27T09:02:24.986Z,100983.52
2022-10-27T09:05:13.790Z,100992.91
2022-10-27T09:07:53.274Z,100993.11
2022-10-27T09:10:40.791Z,100996.59
2022-10-27T09:13:40.425Z,100999.67
2022-10-27T09:16:15.478Z,101004.77
2022-10-27T09:18:51.711Z,101000.20
2022-10-27T09:21:25.305Z,100994.56
2022-10-27T09:23:56.912Z,100995.05
2022-10-27T09:26:30.345Z,100998.51
2022-10-27T09:29:02.536Z,100993.71
2022-10-27T09:31:40.314Z,101002.09
2022-10-27T09:34:32.003Z,101004.91
2022-10-27T09:36:59.689Z,101007.28
2022-10-27T09:39:27.431Z,101007.65
2022-10-27T09:41:55.029Z,101012.29
2022-10-27T09:46:54.645Z,101014.05
2022-10-27T09:49:28.970Z,101016.31
2022-10-27T09:52:05.970Z,101008.28
2022-10-27T09:54:36.698Z,101006.93
2022-10-27T09:57:08.998Z,101012.88
2022-10-27T09:59:38.143Z,101012.39
2022-10-27T10:02:23.621Z,101012.69
2022-10-27T10:04:51.512Z,101010.80
2022-10-27T10:07:35.316Z,101013.48
2022-10-27T10:10:25.728Z,101011.48
2022-10-27T10:13:03.458Z,101008.75
2022-10-27T10:15:35.541Z,101010.10
2022-10-27T10:18:04.849Z,101012.66
2022-10-27T10:20:32.680Z,101010.08
2022-10-27T10:23:03.760Z,101014.42
2022-10-27T10:25:34.018Z,101014.52
2022-10-27T10:28:06.456Z,101019.29
2022-10-27T10:30:38.203Z,101015.84
2022-10-27T10:33:15.459Z,101021.55
2022-10-27T10:35:45.154Z,101020.85
2022-10-27T10:38:28.868Z,101017.50
2022-10-27T10:41:04.396Z,101015.95
2022-10-27T10:43:33.219Z,101014.83
2022-10-27T10:46:01.473Z,101013.11
2022-10-27T10:48:40.203Z,101016.13
2022-10-27T10:51:09.395Z,101017.64
2022-10-27T10:53:42.593Z,101017.20
2022-10-27T10:56:26.311Z,101017.12
2022-10-27T10:59:02.708Z,101018.15
2022-10-27T11:02:02.571Z,101016.69
2022-10-27T11:04:40.163Z,101015.82
2022-10-27T11:07:32.334Z,101016.89
2022-10-27T11:10:15.461Z,101016.77
2022-10-27T11:12:48.750Z,101015.48
2022-10-27T11:15:36.920Z,101015.96
2022-10-27T11:18:12.886Z,101017.27
2022-10-27T11:20:43.155Z,101009.62
2022-10-27T11:23:18.710Z,101008.39
2022-10-27T11:25:50.381Z,101008.79
2022-10-27T11:28:29.667Z,101008.13
2022-10-27T11:31:04.016Z,101010.70
2022-10-27T11:33:47.824Z,101008.92
2022-10-27T11:36:28.597Z,101008.18
2022-10-27T11:39:24.265Z,101007.15
2022-10-27T11:42:00.169Z,101006.69
2022-10-27T11:44:59.898Z,101008.00
2022-10-27T11:47:33.828Z,101003.02
2022-10-27T11:50:04.721Z,101001.27
2022-10-27T11:52:49.658Z,101002.84
2022-10-27T11:55:21.144Z,101004.58
2022-10-27T11:58:21.093Z,101015.25
2022-10-27T12:01:04.710Z,101017.81
2022-10-27T12:03:50.771Z,101020.86
2022-10-27T12:06:31.501Z,101020.60
2022-10-27T12:09:16.209Z,101020.67
2022-10-27T12:11:53.437Z,101014.24
2022-10-27T12:14:50.702Z,101011.67
2022-10-27T12:17:41.626Z,101008.91
2022-10-27T12:20:15.581Z,101008.73
2022-10-27T12:22:51.432Z,101003.45
2022-10-27T12:25:32.168Z,101007.40
2022-10-27T12:28:03.959Z,101005.50
2022-10-27T12:30:31.938Z,101010.55
2022-10-27T12:33:15.559Z,101009.43
2022-10-27T12:35:54.378Z,101007.03
2022-10-27T12:38:32.253Z,101004.87
2022-10-27T12:41:11.889Z,101003.62
2022-10-27T12:44:09.428Z,101001.02
2022-10-27T12:47:03.420Z,101012.00
2022-10-27T12:50:03.119Z,101010.69
2022-10-27T12:52:39.846Z,101010.23
2022-10-27T12:55:27.418Z,101011.17
2022-10-27T12:58:02.534Z,101010.38
2022-10-27T13:00:44.456Z,101010.54
2022-10-27T13:03:28.088Z,101007.10
2022-10-27T13:06:01.587Z,101007.02
2022-10-27T13:09:01.310Z,101008.13
2022-10-27T13:11:46.038Z,101006.88
2022-10-27T13:14:32.359Z,101011.48
2022-10-27T13:17:28.011Z,101006.95
2022-10-27T13:20:28.289Z,101005.07
2022-10-27T13:23:06.006Z,101008.88
2022-10-27T13:25:49.442Z,101010.33
2022-10-27T13:28:35.938Z,101006.73
2022-10-27T13:31:13.681Z,101010.84
2022-10-27T13:36:27.966Z,101010.55
2022-10-27T13:39:13.847Z,101008.00
2022-10-27T13:41:48.130Z,101007.54
2022-10-27T13:44:31.824Z,101010.48
2022-10-27T13:47:02.345Z,101011.48
2022-10-27T13:49:49.048Z,101012.95
2022-10-27T13:52:16.776Z,101012.85
2022-10-27T13:55:02.317Z,101013.97
2022-10-27T13:57:52.579Z,101013.83
2022-10-27T14:00:24.599Z,101012.02
2022-10-27T14:03:08.536Z,101009.70
2022-10-27T14:05:53.315Z,101007.92
2022-10-27T14:08:31.923Z,101012.14
2022-10-27T14:11:02.335Z,101011.44
2022-10-27T14:13:39.052Z,101017.13
2022-10-27T14:16:08.306Z,101015.05
2022-10-27T14:18:38.022Z,101018.50
2022-10-27T14:21:23.165Z,101019.31
2022-10-27T14:23:51.603Z,101022.40
2022-10-27T14:26:24.251Z,101024.27
2022-10-27T14:28:51.971Z,101023.23
2022-10-27T14:31:23.913Z,101023.33
2022-10-27T14:33:53.198Z,101027.52
2022-10-27T14:36:27.254Z,101026.30
2022-10-27T14:39:06.318Z,101028.27
2022-10-27T14:41:36.744Z,101025.39
2022-10-27T14:44:14.273Z,101031.51
2022-10-27T14:46:45.065Z,101032.21
2022-10-27T14:49:24.800Z,101028.87
2022-10-27T14:51:53.239Z,101029.31
2022-10-27T14:54:21.603Z,101027.20
2022-10-27T14:56:49.204Z,101025.29
2022-10-27T14:59:23.134Z,101030.29
2022-10-27T15:01:51.851Z,101032.50
2022-10-27T15:04:24.262Z,101036.98
2022-10-27T15:07:02.109Z,101032.14
2022-10-27T15:09:36.340Z,101028.45
2022-10-27T15:12:15.968Z,101024.81
2022-10-27T15:14:46.476Z,101025.45
2022-10-27T15:17:16.694Z,101023.02
2022-10-27T15:19:53.432Z,101026.94
2022-10-27T15:22:21.794Z,101033.64
2022-10-27T15:24:50.199Z,101029.54
2022-10-27T15:27:18.713Z,101028.80
2022-10-27T15:29:50.805Z,101027.11
2022-10-27T15:32:39.536Z,101031.23
2022-10-27T15:35:30.254Z,101028.07
2022-10-27T15:37:59.782Z,101026.05
2022-10-27T15:40:44.556Z,101027.08
2022-10-27T15:43:20.758Z,101022.58
2022-10-27T15:45:49.909Z,101028.73
2022-10-27T15:48:23.806Z,101030.84
2022-10-27T15:51:17.072Z,101022.98
2022-10-27T15:53:52.181Z,101021.05
2022-10-27T15:56:39.290Z,101019.98
2022-10-27T15:59:22.219Z,101026.30
2022-10-27T16:01:53.449Z,101027.29
2022-10-27T16:04:29.070Z,101025.35
2022-10-27T16:07:13.816Z,101022.99
2022-10-27T16:09:45.055Z,101023.70
2022-10-27T16:12:18.388Z,101028.31
2022-10-27T16:14:51.130Z,101027.54
2022-10-27T16:17:24.519Z,101033.92
2022-10-27T16:19:52.520Z,101038.80
2022-10-27T16:22:22.228Z,101035.52
2022-10-27T16:24:49.873Z,101032.69
2022-10-27T16:27:21.229Z,101037.98
2022-10-27T16:30:02.686Z,101033.77
2022-10-27T16:32:33.413Z,101035.14
2022-10-27T16:35:02.070Z,101037.96
2022-10-27T16:37:31.981Z,101039.27
2022-10-27T16:39:59.703Z,101032.79
2022-10-27T16:42:27.568Z,101027.73
2022-10-27T16:44:55.209Z,101037.66
2022-10-27T16:47:22.808Z,101040.90
2022-10-27T16:49:52.845Z,101041.98
2022-10-27T16:52:20.404Z,101043.77
2022-10-27T16:54:48.291Z,101042.02
2022-10-27T16:57:15.932Z,101039.83
2022-10-27T16:59:43.526Z,101036.44
2022-10-27T17:02:12.389Z,101037.61
2022-10-27T17:04:40.183Z,101039.30
2022-10-27T17:07:07.882Z,101037.06
2022-10-27T17:09:35.473Z,101038.19
2022-10-27T17:12:03.567Z,101036.34
2022-10-27T17:14:33.517Z,101043.32
2022-10-27T17:17:01.216Z,101042.17
2022-10-27T17:19:30.277Z,101039.98
2022-10-27T17:21:57.869Z,101037.17
2022-10-27T17:24:25.733Z,101039.44
2022-10-27T17:26:53.325Z,101037.64
2022-10-27T17:29:21.002Z,101041.11
2022-10-27T17:31:48.794Z,101039.66
2022-10-27T17:34:18.135Z,101038.04
2022-10-27T17:36:45.986Z,101035.42
2022-10-27T17:39:14.977Z,101038.68
2022-10-27T17:41:42.555Z,101038.87
2022-10-27T17:44:10.113Z,101041.77
2022-10-27T17:46:37.772Z,101042.67
2022-10-27T17:49:05.365Z,101043.05
2022-10-27T17:51:33.702Z,101044.29
2022-10-27T17:54:04.154Z,101039.05
2022-10-27T17:56:36.779Z,101036.27
2022-10-27T17:59:07.345Z,101036.98
2022-10-27T18:01:35.443Z,101034.23
2022-10-27T18:04:06.028Z,101037.63
2022-10-27T18:06:34.111Z,101036.22
2022-10-27T18:09:02.334Z,101032.23
2022-10-27T18:11:32.960Z,101037.79
2022-10-27T18:14:04.264Z,101036.90
2022-10-27T18:16:34.623Z,101035.39
2022-10-27T18:19:08.038Z,101030.25
2022-10-27T18:21:36.861Z,101030.33
2022-10-27T18:24:06.592Z,101029.70
2022-10-27T18:26:37.014Z,101031.61
2022-10-27T18:29:06.246Z,101027.75
2022-10-27T18:31:37.377Z,101028.04
2022-10-27T18:34:07.285Z,101027.04
2022-10-27T18:36:36.378Z,101031.27
2022-10-27T18:39:05.905Z,101027.04
2022-10-27T18:41:36.405Z,101027.44
2022-10-27T18:44:04.760Z,101032.38
2022-10-27T18:46:33.589Z,101028.52
2022-10-27T18:49:01.296Z,101030.09
2022-10-27T18:51:31.323Z,101033.61
2022-10-27T18:54:03.531Z,101033.23
2022-10-27T18:56:32.733Z,101034.76
2022-10-27T18:59:04.061Z,101037.70
2022-10-27T19:01:34.713Z,101037.02
2022-10-27T19:04:08.216Z,101043.16
2022-10-27T19:06:36.827Z,101038.60
2022-10-27T19:09:05.390Z,101043.14
2022-10-27T19:11:35.541Z,101049.16
2022-10-27T19:14:03.809Z,101050.39
2022-10-27T19:16:31.534Z,101047.30
2022-10-27T19:18:59.892Z,101051.90
2022-10-27T19:21:28.850Z,101052.77
2022-10-27T19:23:59.590Z,101053.57
2022-10-27T19:26:30.397Z,101053.88
2022-10-27T19:28:58.780Z,101054.53
2022-10-27T19:31:30.059Z,101053.81
2022-10-27T19:33:58.153Z,101052.55
2022-10-27T19:36:30.397Z,101051.74
2022-10-27T19:39:00.235Z,101051.52
2022-10-27T19:41:31.087Z,101047.45
2022-10-27T19:44:00.276Z,101050.17
2022-10-27T19:46:30.278Z,101048.98
2022-10-27T19:49:01.284Z,101047.25
2022-10-27T19:51:31.528Z,101052.52
2022-10-27T19:53:59.580Z,101056.13
2022-10-27T19:56:32.198Z,101060.81
2022-10-27T19:59:03.020Z,101059.06
2022-10-27T20:01:34.841Z,101063.36
2022-10-27T20:04:04.397Z,101060.88
2022-10-27T20:06:32.657Z,101060.86
2022-10-27T20:09:01.030Z,101062.65
2022-10-27T20:11:31.969Z,101060.27
2022-10-27T20:14:02.426Z,101064.29
2022-10-27T20:16:33.912Z,101063.77
2022-10-27T20:19:04.482Z,101068.10
2022-10-27T20:21:33.061Z,101071.59
2022-10-27T20:24:03.111Z,101071.45
2022-10-27T20:26:31.007Z,101068.20
2022-10-27T20:29:01.055Z,101069.17
2022-10-27T20:31:29.369Z,101066.52
2022-10-27T20:33:57.216Z,101072.28
2022-10-27T20:36:25.944Z,101070.42
2022-10-27T20:38:54.006Z,101070.08
2022-10-27T20:41:23.437Z,101070.77
2022-10-27T20:43:59.750Z,101065.54
2022-10-27T20:46:30.012Z,101070.27
2022-10-27T20:48:58.974Z,101066.94
2022-10-27T20:51:29.195Z,101065.00
2022-10-27T20:53:57.784Z,101069.20
2022-10-27T20:56:31.316Z,101070.62
2022-10-27T20:58:58.871Z,101074.48
2022-10-27T21:01:37.115Z,101076.17
2022-10-27T21:04:17.480Z,101073.55
2022-10-27T21:06:49.026Z,101071.07
2022-10-27T21:09:18.836Z,101069.55
2022-10-27T21:11:47.765Z,101069.41
2022-10-27T21:14:16.556Z,101068.42
2022-10-27T21:16:47.228Z,101063.65
2022-10-27T21:19:18.267Z,101064.84
2022-10-27T21:21:46.262Z,101066.11
2022-10-27T21:24:16.966Z,101064.59
2022-10-27T21:26:45.920Z,101067.06
2022-10-27T21:29:14.529Z,101067.98
2022-10-27T21:31:42.223Z,101065.27
2022-10-27T21:34:10.557Z,101060.60
2022-10-27T21:36:38.587Z,101056.71
2022-10-27T21:39:10.581Z,101055.29
2022-10-27T21:41:38.269Z,101059.61
2022-10-27T21:44:05.875Z,101057.71
2022-10-27T21:46:33.716Z,101055.92
2022-10-27T21:49:02.198Z,101050.00
2022-10-27T21:51:30.731Z,101051.36
2022-10-27T21:54:04.015Z,101054.20
2022-10-27T21:56:34.125Z,101048.77
2022-10-27T21:59:02.600Z,101052.31
2022-10-27T22:01:31.037Z,101050.95
2022-10-27T22:03:59.779Z,101046.81
2022-10-27T22:06:30.679Z,101043.39
2022-10-27T22:08:59.576Z,101039.36
2022-10-27T22:11:30.012Z,101046.95
2022-10-27T22:13:58.251Z,101040.70
2022-10-27T22:16:28.092Z,101041.21
2022-10-27T22:18:58.406Z,101040.92
2022-10-27T22:21:28.676Z,101044.52
2022-10-27T22:23:56.630Z,101045.10
2022-10-27T22:26:24.924Z,101048.61
2022-10-27T22:28:53.506Z,101048.08
2022-10-27T22:31:24.238Z,101049.48
2022-10-27T22:33:52.331Z,101051.70
2022-10-27T22:36:21.595Z,101045.09
2022-10-27T22:39:00.715Z,101039.83
2022-10-27T22:41:29.595Z,101034.38
2022-10-27T22:43:57.970Z,101036.54
2022-10-27T22:46:28.128Z,101032.52
2022-10-27T22:48:56.289Z,101031.09
2022-10-27T22:51:25.567Z,101024.34
2022-10-27T22:53:55.291Z,101019.40
2022-10-27T22:56:28.787Z,101018.73
2022-10-27T22:58:57.626Z,101018.45
2022-10-27T23:01:37.213Z,101016.52
2022-10-27T23:04:06.911Z,101013.83
2022-10-27T23:06:37.290Z,101019.02
2022-10-27T23:09:11.043Z,101011.82
2022-10-27T23:11:38.765Z,101010.99
2022-10-27T23:14:09.083Z,101012.02
2022-10-27T23:16:36.860Z,101012.38
2022-10-27T23:19:05.225Z,101013.27
2022-10-27T23:21:34.583Z,101007.56
2022-10-27T23:24:02.975Z,101009.23
2022-10-27T23:26:33.372Z,101011.47
2022-10-27T23:29:04.341Z,101009.99
2022-10-27T23:31:32.962Z,101004.73
2022-10-27T23:34:02.596Z,101005.24
2022-10-27T23:36:32.322Z,101005.71
2022-10-27T23:39:00.931Z,101009.28
2022-10-27T23:41:28.649Z,101002.96
2022-10-27T23:43:58.129Z,101006.82
2022-10-27T23:46:27.717Z,101002.55
2022-10-27T23:48:55.788Z,101002.13
2022-10-27T23:51:23.868Z,101003.34
2022-10-27T23:53:51.673Z,101002.31
2022-10-27T23:56:20.381Z,101002.89
2022-10-27T23:58:48.244Z,101004.32
